Time;durP1;ratioP1;P1;durP2;ratioP2;P2;SDS_P1;SDS_P2;PMS_P1;PMS_P2;Temp;Humidity;BMP_temperature;BMP_pressure;BME280_temperature;BME280_humidity;BME280_pressure;Samples;Min_cycle;Max_cycle;Signal;HPM_P1;HPM_P2
2022/09/11 00:01:06;;;;;;;28.33;20.33;;;14.40;99.90;;;;;;5039407;28;20042;-66
2022/09/11 00:03:32;;;;;;;30.63;22.63;;;14.40;99.90;;;;;;5011928;28;20053;-66
2022/09/11 00:06:04;;;;;;;38.28;24.92;;;14.30;99.90;;;;;;5012168;28;20084;-66
2022/09/11 00:08:32;;;;;;;39.28;25.25;;;14.40;99.90;;;;;;5007145;28;20092;-66
2022/09/11 00:11:07;;;;;;;36.90;24.20;;;14.50;99.90;;;;;;5005080;28;20050;-66
2022/09/11 00:13:34;;;;;;;34.53;24.55;;;14.50;99.90;;;;;;4980370;28;20054;-66
2022/09/11 00:16:02;;;;;;;31.10;23.38;;;14.50;99.90;;;;;;5024445;28;20053;-65
2022/09/11 00:18:29;;;;;;;31.17;21.65;;;14.50;99.90;;;;;;5007652;28;20528;-66
2022/09/11 00:20:57;;;;;;;30.50;22.52;;;14.40;99.90;;;;;;5001129;28;20085;-66
2022/09/11 00:23:25;;;;;;;35.65;24.08;;;14.40;99.90;;;;;;5010253;28;20282;-66
2022/09/11 00:25:51;;;;;;;37.47;24.92;;;14.30;99.90;;;;;;5018952;28;20136;-66
2022/09/11 00:28:20;;;;;;;38.80;25.33;;;14.30;99.90;;;;;;5048050;28;20097;-66
2022/09/11 00:30:56;;;;;;;38.20;24.30;;;14.30;99.90;;;;;;5011396;28;20129;-66
2022/09/11 00:33:22;;;;;;;35.53;24.67;;;14.20;99.90;;;;;;5025281;28;20105;-66
2022/09/11 00:35:57;;;;;;;36.53;25.02;;;14.20;99.90;;;;;;5043372;28;20057;-66
2022/09/11 00:38:25;;;;;;;34.70;22.88;;;14.20;99.90;;;;;;5002093;28;20077;-66
2022/09/11 00:40:52;;;;;;;34.95;23.52;;;14.20;99.90;;;;;;5007908;28;20054;-66
2022/09/11 00:43:17;;;;;;;38.10;23.50;;;14.10;99.90;;;;;;5010906;28;20061;-66
2022/09/11 00:45:48;;;;;;;33.95;24.38;;;14.00;99.90;;;;;;5016610;28;20049;-66
2022/09/11 00:48:19;;;;;;;35.95;24.80;;;13.90;99.90;;;;;;5025919;28;20050;-66
2022/09/11 00:50:45;;;;;;;34.55;23.88;;;13.90;99.90;;;;;;5026733;28;20041;-66
2022/09/11 00:53:16;;;;;;;36.53;24.92;;;13.80;99.90;;;;;;5009264;28;20038;-66
2022/09/11 00:55:47;;;;;;;36.83;23.45;;;13.80;99.90;;;;;;5012504;28;20049;-66
2022/09/11 00:58:17;;;;;;;33.20;23.33;;;13.70;99.90;;;;;;5002271;28;20057;-66
2022/09/11 01:00:43;;;;;;;;;;;13.70;99.90;;;;;;5044134;28;20514;-66
2022/09/11 01:03:09;;;;;;;36.58;24.88;;;13.70;99.90;;;;;;5041638;28;20339;-66
2022/09/11 01:05:39;;;;;;;36.70;24.45;;;13.80;99.90;;;;;;5016319;28;20049;-66
2022/09/11 01:08:06;;;;;;;30.98;21.65;;;13.80;99.90;;;;;;5018323;28;20046;-66
2022/09/11 01:10:54;;;;;;;32.50;22.13;;;13.80;99.90;;;;;;5041687;28;20077;-66
2022/09/11 01:13:45;;;;;;;34.63;24.25;;;13.70;99.90;;;;;;5020346;28;20073;-66
2022/09/11 01:16:36;;;;;;;30.80;22.27;;;13.70;99.90;;;;;;5008476;28;20041;-65
2022/09/11 01:19:19;;;;;;;416.98;30.48;;;13.70;99.90;;;;;;5018566;28;20046;-66
2022/09/11 01:22:11;;;;;;;87.18;22.10;;;13.70;99.90;;;;;;4993508;28;20046;-66
2022/09/11 01:25:04;;;;;;;27.20;20.45;;;13.70;99.90;;;;;;5016515;28;20045;-66
2022/09/11 01:28:29;;;;;;;31.80;20.45;;;13.60;99.90;;;;;;5048381;28;20119;-66
2022/09/11 01:31:01;;;;;;;30.55;21.40;;;13.70;99.90;;;;;;4973093;28;20059;-66
2022/09/11 01:33:40;;;;;;;31.13;23.33;;;13.70;99.90;;;;;;4971108;28;20138;-65
2022/09/11 01:36:06;;;;;;;56.22;21.65;;;13.70;99.90;;;;;;4958843;28;20055;-65
2022/09/11 01:38:47;;;;;;;114.57;23.98;;;13.70;99.90;;;;;;4968590;28;20081;-66
2022/09/11 01:41:19;;;;;;;73.82;24.88;;;13.70;99.90;;;;;;4961807;28;21099;-66
2022/09/11 01:44:09;;;;;;;31.52;21.70;;;13.60;99.90;;;;;;4984472;28;20054;-65
2022/09/11 01:46:43;;;;;;;30.55;22.67;;;13.60;99.90;;;;;;4969259;28;20063;-66
2022/09/11 01:49:14;;;;;;;42.30;27.73;;;13.50;99.90;;;;;;4975374;28;20054;-66
2022/09/11 01:51:40;;;;;;;39.55;26.58;;;13.50;99.90;;;;;;4990294;28;20162;-66
2022/09/11 01:54:15;;;;;;;37.42;25.58;;;13.60;99.90;;;;;;4977801;28;20134;-66
2022/09/11 01:56:54;;;;;;;39.05;26.45;;;13.60;99.90;;;;;;4981340;28;20093;-66
2022/09/11 01:59:30;;;;;;;44.88;27.90;;;13.50;99.90;;;;;;4975677;28;20066;-66
2022/09/11 02:02:05;;;;;;;39.53;26.23;;;13.50;99.90;;;;;;4982932;28;20106;-66
2022/09/11 02:04:40;;;;;;;41.33;27.05;;;13.40;99.90;;;;;;4959416;28;20098;-66
2022/09/11 02:07:32;;;;;;;39.83;26.13;;;13.40;99.90;;;;;;5005674;28;20068;-65
2022/09/11 02:10:22;;;;;;;38.60;26.05;;;13.40;99.90;;;;;;5004418;28;20054;-66
2022/09/11 02:13:01;;;;;;;38.20;26.75;;;13.40;99.90;;;;;;5009651;28;20070;-66
2022/09/11 02:15:35;;;;;;;43.15;26.42;;;13.50;99.90;;;;;;5008645;28;20117;-66
2022/09/11 02:18:10;;;;;;;37.08;26.08;;;13.50;99.90;;;;;;5018877;28;20510;-66
2022/09/11 02:20:35;;;;;;;42.53;28.23;;;13.50;99.90;;;;;;5004351;28;20085;-66
2022/09/11 02:23:01;;;;;;;39.95;26.85;;;13.60;99.90;;;;;;5007142;28;20054;-66
2022/09/11 02:25:27;;;;;;;41.75;27.55;;;13.60;99.90;;;;;;5008363;28;20053;-66
2022/09/11 02:27:53;;;;;;;43.05;27.45;;;13.60;99.90;;;;;;5026699;28;20409;-66
2022/09/11 02:30:19;;;;;;;41.88;27.15;;;13.70;99.90;;;;;;5017134;28;20654;-66
2022/09/11 02:32:46;;;;;;;38.45;26.88;;;13.80;99.90;;;;;;5027607;28;20045;-66
2022/09/11 02:35:12;;;;;;;40.40;27.45;;;13.80;99.90;;;;;;5005295;28;20058;-66
2022/09/11 02:37:51;;;;;;;37.45;27.13;;;13.80;99.90;;;;;;5016048;28;20092;-66
2022/09/11 02:40:25;;;;;;;38.58;28.08;;;13.80;99.90;;;;;;5010442;28;20050;-66
2022/09/11 02:43:16;;;;;;;42.67;27.40;;;13.80;99.90;;;;;;5007704;28;20498;-66
2022/09/11 02:46:08;;;;;;;37.47;26.45;;;13.80;99.90;;;;;;5010168;28;20037;-66
2022/09/11 02:48:59;;;;;;;33.08;24.38;;;13.80;99.90;;;;;;5010138;28;20486;-66
2022/09/11 02:51:32;;;;;;;38.00;26.15;;;13.80;99.90;;;;;;5011016;28;20077;-66
2022/09/11 02:54:36;;;;;;;37.10;24.67;;;13.80;99.90;;;;;;5024849;28;20121;-65
2022/09/11 02:57:38;;;;;;;41.58;26.40;;;13.80;99.90;;;;;;5022555;28;20054;-66
2022/09/11 03:00:07;;;;;;;32.63;23.92;;;13.80;99.90;;;;;;5000916;28;20054;-66
2022/09/11 03:02:40;;;;;;;31.67;24.85;;;13.70;99.90;;;;;;5011694;28;20477;-66
2022/09/11 03:05:07;;;;;;;37.22;25.02;;;13.60;99.90;;;;;;5024797;28;20115;-65
2022/09/11 03:07:33;;;;;;;31.70;22.67;;;13.50;99.90;;;;;;5010337;28;20375;-66
2022/09/11 03:09:58;;;;;;;32.92;23.48;;;13.50;99.90;;;;;;5030268;28;20053;-66
2022/09/11 03:12:26;;;;;;;30.40;23.52;;;13.50;99.90;;;;;;4999046;28;20045;-66
2022/09/11 03:14:51;;;;;;;32.20;22.23;;;13.60;99.90;;;;;;5023483;28;20043;-66
2022/09/11 03:17:18;;;;;;;28.15;20.45;;;13.60;99.90;;;;;;5040586;28;20041;-66
2022/09/11 03:19:44;;;;;;;28.63;21.85;;;13.50;99.90;;;;;;5018399;28;20057;-66
2022/09/11 03:22:10;;;;;;;26.58;20.05;;;13.50;99.90;;;;;;5031258;28;20065;-66
2022/09/11 03:24:38;;;;;;;32.60;23.60;;;13.40;99.90;;;;;;5011484;28;20061;-66
2022/09/11 03:27:04;;;;;;;32.13;22.42;;;13.40;99.90;;;;;;5024835;28;20085;-66
2022/09/11 03:29:30;;;;;;;32.50;23.83;;;13.50;99.90;;;;;;5010053;28;20107;-66
2022/09/11 03:31:57;;;;;;;34.75;22.73;;;13.50;99.90;;;;;;5007936;28;20046;-66
2022/09/11 03:34:24;;;;;;;32.20;21.48;;;13.50;99.90;;;;;;5000255;28;20066;-66
2022/09/11 03:36:50;;;;;;;22.88;18.35;;;13.50;99.90;;;;;;4986690;28;20050;-66
2022/09/11 03:39:16;;;;;;;66.28;18.88;;;13.50;99.90;;;;;;4993105;28;20050;-66
2022/09/11 03:41:42;;;;;;;20.55;15.60;;;13.40;99.90;;;;;;5001911;28;20069;-66
2022/09/11 03:44:08;;;;;;;23.85;17.42;;;13.30;99.90;;;;;;4992777;28;20079;-66
2022/09/11 03:46:34;;;;;;;22.90;18.20;;;13.30;99.90;;;;;;5004416;28;20046;-66
2022/09/11 03:49:01;;;;;;;41.30;19.73;;;13.30;99.90;;;;;;5009073;28;20421;-66
2022/09/11 03:51:27;;;;;;;33.20;21.23;;;13.30;99.90;;;;;;5003753;28;20407;-66
2022/09/11 03:53:52;;;;;;;35.22;23.17;;;13.30;99.90;;;;;;4997325;28;20054;-66
2022/09/11 03:56:19;;;;;;;25.48;19.00;;;13.10;99.90;;;;;;4991539;28;20489;-66
2022/09/11 03:58:45;;;;;;;25.83;20.38;;;13.00;99.90;;;;;;5007668;28;20104;-66
2022/09/11 04:01:13;;;;;;;33.55;22.42;;;12.90;99.90;;;;;;4987786;28;20081;-66
2022/09/11 04:03:39;;;;;;;34.72;23.15;;;13.00;99.90;;;;;;5000365;28;20069;-66
2022/09/11 04:06:06;;;;;;;36.00;25.25;;;12.90;99.90;;;;;;5009484;28;20052;-66
2022/09/11 04:08:34;;;;;;;31.33;22.65;;;12.90;99.90;;;;;;4995887;28;20038;-66
2022/09/11 04:11:02;;;;;;;27.67;21.05;;;12.90;99.90;;;;;;4990832;28;20046;-66
2022/09/11 04:13:33;;;;;;;26.90;19.85;;;13.00;99.90;;;;;;4987949;28;20050;-66
2022/09/11 04:16:04;;;;;;;30.33;21.20;;;13.00;99.90;;;;;;4996926;28;20065;-66
2022/09/11 04:18:31;;;;;;;26.30;20.30;;;13.00;99.90;;;;;;5007224;28;20066;-66
2022/09/11 04:20:57;;;;;;;30.17;21.58;;;12.90;99.90;;;;;;4994450;28;20060;-66
2022/09/11 04:23:24;;;;;;;28.20;21.80;;;12.90;99.90;;;;;;4992781;28;20070;-66
2022/09/11 04:25:49;;;;;;;30.52;21.40;;;12.90;99.90;;;;;;4990938;28;20089;-65
2022/09/11 04:28:15;;;;;;;29.73;21.33;;;12.90;99.90;;;;;;4992710;28;20038;-66
2022/09/11 04:30:41;;;;;;;25.90;18.77;;;12.80;99.90;;;;;;5006998;28;20054;-66
2022/09/11 04:33:07;;;;;;;27.95;19.67;;;12.80;99.90;;;;;;5005550;28;20141;-66
2022/09/11 04:35:38;;;;;;;30.60;21.23;;;12.80;99.90;;;;;;5011490;28;20081;-66
2022/09/11 04:38:04;;;;;;;24.60;18.73;;;12.80;99.90;;;;;;5014520;28;20044;-66
2022/09/11 04:40:31;;;;;;;24.25;18.67;;;12.90;99.90;;;;;;5015078;28;20105;-66
2022/09/11 04:42:57;;;;;;;21.88;18.02;;;12.90;99.90;;;;;;5041996;28;20049;-66
2022/09/11 04:45:23;;;;;;;24.05;18.42;;;12.90;99.90;;;;;;4996931;28;20042;-66
2022/09/11 04:47:51;;;;;;;22.10;16.92;;;12.90;99.90;;;;;;5014312;28;20139;-65
2022/09/11 04:50:17;;;;;;;21.50;17.67;;;12.90;99.90;;;;;;5011254;28;20089;-66
2022/09/11 04:52:44;;;;;;;23.40;18.33;;;12.80;99.90;;;;;;5013231;28;20049;-66
2022/09/11 04:55:10;;;;;;;21.08;16.45;;;12.70;99.90;;;;;;5013971;28;20100;-65
2022/09/11 04:57:37;;;;;;;24.50;18.00;;;12.70;99.90;;;;;;5017399;28;20050;-66
2022/09/11 05:00:05;;;;;;;24.52;18.88;;;12.70;99.90;;;;;;5027328;28;20050;-66
2022/09/11 05:02:31;;;;;;;22.27;16.55;;;12.70;99.90;;;;;;5015623;28;20094;-66
2022/09/11 05:04:57;;;;;;;24.00;17.90;;;12.70;99.90;;;;;;5008977;28;20073;-66
2022/09/11 05:07:24;;;;;;;21.40;17.20;;;12.60;99.90;;;;;;5012665;28;20761;-66
2022/09/11 05:09:53;;;;;;;21.23;17.13;;;12.60;99.90;;;;;;5028809;28;20396;-66
2022/09/11 05:12:20;;;;;;;20.40;17.27;;;12.60;99.90;;;;;;5006095;28;20061;-66
2022/09/11 05:14:46;;;;;;;19.70;16.23;;;12.60;99.90;;;;;;5027317;28;20048;-66
2022/09/11 05:17:12;;;;;;;19.52;16.15;;;12.70;99.90;;;;;;5028728;28;20049;-66
2022/09/11 05:19:39;;;;;;;23.48;17.77;;;12.70;99.90;;;;;;5008980;28;20124;-66
2022/09/11 05:22:05;;;;;;;22.63;17.95;;;12.70;99.90;;;;;;5002469;28;20050;-66
2022/09/11 05:24:31;;;;;;;22.55;16.95;;;12.70;99.90;;;;;;5043544;28;20049;-66
2022/09/11 05:27:00;;;;;;;22.02;18.55;;;12.70;99.90;;;;;;5018519;28;20056;-66
2022/09/11 05:29:28;;;;;;;22.38;17.02;;;12.60;99.90;;;;;;5001962;28;20103;-66
2022/09/11 05:31:57;;;;;;;24.27;19.88;;;12.50;99.90;;;;;;5011754;28;20046;-66
2022/09/11 05:34:26;;;;;;;23.20;17.73;;;12.50;99.90;;;;;;5001563;28;20054;-66
2022/09/11 05:36:51;;;;;;;27.02;19.73;;;12.50;99.90;;;;;;5007890;28;20074;-66
2022/09/11 05:39:17;;;;;;;27.20;19.42;;;12.60;99.90;;;;;;4994938;28;20054;-66
2022/09/11 05:41:43;;;;;;;26.33;18.52;;;12.60;99.90;;;;;;5033318;28;20125;-65
2022/09/11 05:44:08;;;;;;;24.00;18.00;;;12.60;99.90;;;;;;5007191;28;20046;-66
2022/09/11 05:46:34;;;;;;;23.10;18.40;;;12.60;99.90;;;;;;5028368;28;20042;-66
2022/09/11 05:49:00;;;;;;;25.65;18.95;;;12.70;99.90;;;;;;5019340;28;20050;-66
2022/09/11 05:51:25;;;;;;;25.25;19.27;;;12.70;99.90;;;;;;5025853;28;20046;-66
2022/09/11 05:53:52;;;;;;;25.80;19.38;;;12.70;99.90;;;;;;4997657;28;20049;-66
2022/09/11 05:56:22;;;;;;;23.83;18.52;;;12.70;99.90;;;;;;4996830;28;20038;-66
2022/09/11 05:58:50;;;;;;;26.47;20.33;;;12.80;99.90;;;;;;4991283;28;20066;-66
2022/09/11 06:01:21;;;;;;;23.08;18.23;;;12.90;99.90;;;;;;5005068;28;20451;-66
2022/09/11 06:03:48;;;;;;;26.83;19.70;;;12.90;99.90;;;;;;4995708;28;20406;-65
2022/09/11 06:06:16;;;;;;;24.77;18.85;;;13.00;99.90;;;;;;4992828;28;20660;-66
2022/09/11 06:08:43;;;;;;;23.00;17.38;;;13.10;99.90;;;;;;5031382;28;20078;-66
2022/09/11 06:11:10;;;;;;;24.10;18.30;;;13.10;99.90;;;;;;5031101;28;20039;-66
2022/09/11 06:13:37;;;;;;;26.55;20.63;;;13.10;99.90;;;;;;5007147;28;20074;-65
2022/09/11 06:16:06;;;;;;;24.90;19.88;;;13.20;99.90;;;;;;5004113;28;20275;-66
2022/09/11 06:18:32;;;;;;;25.08;18.58;;;13.20;99.90;;;;;;5010650;28;20053;-66
2022/09/11 06:21:06;;;;;;;22.90;18.50;;;13.30;99.90;;;;;;4995691;28;20046;-66
2022/09/11 06:23:33;;;;;;;25.67;19.92;;;13.40;99.90;;;;;;4996617;28;20446;-66
2022/09/11 06:26:04;;;;;;;22.83;18.35;;;13.50;99.90;;;;;;4996922;28;20431;-66
2022/09/11 06:28:30;;;;;;;28.98;22.13;;;13.50;99.90;;;;;;5017219;28;20375;-65
2022/09/11 06:30:56;;;;;;;30.50;22.50;;;13.60;99.90;;;;;;5022635;28;20135;-66
2022/09/11 06:33:22;;;;;;;30.65;22.08;;;13.70;99.90;;;;;;4998933;28;20061;-66
2022/09/11 06:35:59;;;;;;;29.17;21.55;;;13.80;99.90;;;;;;5001617;28;20050;-66
2022/09/11 06:38:25;;;;;;;28.38;22.17;;;13.90;99.90;;;;;;4993387;28;20486;-66
2022/09/11 06:40:51;;;;;;;31.88;22.50;;;13.90;99.90;;;;;;4987924;28;20043;-66
2022/09/11 06:43:17;;;;;;;33.30;22.05;;;14.00;99.90;;;;;;5030453;28;20046;-66
2022/09/11 06:45:43;;;;;;;30.10;22.17;;;14.00;99.90;;;;;;4988611;28;20054;-66
2022/09/11 06:48:09;;;;;;;28.38;21.30;;;14.10;99.90;;;;;;4993914;28;20053;-66
2022/09/11 06:50:41;;;;;;;30.30;21.05;;;14.20;99.90;;;;;;4971171;28;20113;-66
2022/09/11 06:53:07;;;;;;;34.60;24.67;;;14.20;99.90;;;;;;4997360;28;20054;-65
2022/09/11 06:55:33;;;;;;;32.13;22.95;;;14.40;99.90;;;;;;4978588;28;20057;-64
2022/09/11 06:57:59;;;;;;;30.25;22.45;;;14.40;99.90;;;;;;5023051;28;20060;-64
2022/09/11 07:00:25;;;;;;;33.47;24.13;;;14.50;99.90;;;;;;5005297;28;20057;-64
2022/09/11 07:02:55;;;;;;;33.08;24.15;;;14.50;99.90;;;;;;5006745;28;20502;-64
2022/09/11 07:05:21;;;;;;;38.80;26.75;;;14.70;99.90;;;;;;5002634;28;20130;-64
2022/09/11 07:07:49;;;;;;;32.08;23.50;;;14.80;99.90;;;;;;5019551;28;20046;-64
2022/09/11 07:10:15;;;;;;;33.92;25.45;;;14.90;99.90;;;;;;4989907;28;20482;-64
2022/09/11 07:12:41;;;;;;;36.22;26.67;;;15.00;99.90;;;;;;5001991;28;20065;-64
2022/09/11 07:15:08;;;;;;;38.47;25.98;;;15.10;99.90;;;;;;5020961;28;20054;-65
2022/09/11 07:17:35;;;;;;;36.00;24.98;;;15.20;99.90;;;;;;5002357;28;20046;-64
2022/09/11 07:20:05;;;;;;;34.95;25.88;;;15.20;99.90;;;;;;5019677;28;20286;-64
2022/09/11 07:22:30;;;;;;;36.00;25.52;;;15.30;99.90;;;;;;5002309;28;20103;-64
2022/09/11 07:24:57;;;;;;;31.08;22.15;;;15.40;99.90;;;;;;5003092;28;20054;-64
2022/09/11 07:27:22;;;;;;;37.05;25.95;;;15.40;99.90;;;;;;5003286;28;20157;-64
2022/09/11 07:29:48;;;;;;;36.17;26.25;;;15.50;99.90;;;;;;4990328;28;20132;-64
2022/09/11 07:32:14;;;;;;;35.85;25.60;;;15.60;99.90;;;;;;5001719;28;20042;-64
2022/09/11 07:34:40;;;;;;;34.65;25.77;;;15.60;99.90;;;;;;5016891;28;20049;-64
2022/09/11 07:37:06;;;;;;;36.28;25.40;;;15.70;99.90;;;;;;5028133;28;20085;-64
2022/09/11 07:39:32;;;;;;;37.33;25.58;;;15.70;99.90;;;;;;5034642;28;20045;-64
2022/09/11 07:41:58;;;;;;;39.33;27.00;;;15.80;99.90;;;;;;5027640;28;20038;-64
2022/09/11 07:44:23;;;;;;;37.88;25.83;;;15.80;99.90;;;;;;5006424;28;20073;-64
2022/09/11 07:46:50;;;;;;;45.03;28.40;;;15.80;99.90;;;;;;5016634;28;20050;-64
2022/09/11 07:49:16;;;;;;;42.47;28.10;;;16.00;99.90;;;;;;5012696;28;20085;-64
2022/09/11 07:51:42;;;;;;;36.78;26.88;;;15.90;99.90;;;;;;5002810;28;20042;-66
2022/09/11 07:54:09;;;;;;;36.78;26.80;;;16.10;99.90;;;;;;4992729;28;20391;-66
2022/09/11 07:56:35;;;;;;;41.38;25.85;;;16.10;99.90;;;;;;5050506;28;20595;-64
2022/09/11 07:59:05;;;;;;;37.90;25.33;;;16.10;99.90;;;;;;4955758;28;20056;-64
2022/09/11 08:01:32;;;;;;;37.08;25.75;;;16.20;99.90;;;;;;5017218;28;20069;-64
2022/09/11 08:04:00;;;;;;;34.60;22.65;;;16.30;99.90;;;;;;5012193;28;20112;-64
2022/09/11 08:06:31;;;;;;;27.70;19.75;;;16.30;99.90;;;;;;5033138;28;20377;-64
2022/09/11 08:09:00;;;;;;;26.95;20.58;;;16.40;99.90;;;;;;5012627;28;20046;-63
2022/09/11 08:11:27;;;;;;;23.67;18.20;;;16.40;99.90;;;;;;5007843;28;20069;-64
2022/09/11 08:13:54;;;;;;;29.23;18.48;;;16.40;99.90;;;;;;5005412;28;20398;-65
2022/09/11 08:16:22;;;;;;;27.67;20.85;;;16.50;99.90;;;;;;5005700;28;20540;-64
2022/09/11 08:18:48;;;;;;;27.98;21.10;;;16.60;99.90;;;;;;5009618;28;20062;-64
2022/09/11 08:21:14;;;;;;;25.20;17.55;;;16.70;99.90;;;;;;5021902;28;20081;-64
2022/09/11 08:23:42;;;;;;;22.80;17.35;;;16.70;99.90;;;;;;5001735;28;20077;-64
2022/09/11 08:26:09;;;;;;;23.70;18.95;;;16.80;99.90;;;;;;5023645;28;20164;-64
2022/09/11 08:28:36;;;;;;;27.05;21.73;;;16.90;99.90;;;;;;5005794;28;20058;-64
2022/09/11 08:31:04;;;;;;;26.40;20.00;;;16.90;99.90;;;;;;5009198;28;20121;-65
2022/09/11 08:33:32;;;;;;;23.63;17.42;;;17.00;99.90;;;;;;5002362;28;20093;-65
2022/09/11 08:35:58;;;;;;;25.42;18.15;;;17.00;99.90;;;;;;4969203;28;20059;-65
2022/09/11 08:38:24;;;;;;;18.27;15.80;;;17.20;99.90;;;;;;4995602;28;20061;-65
2022/09/11 08:40:50;;;;;;;17.90;13.73;;;17.30;99.90;;;;;;4980982;28;20046;-65
2022/09/11 08:43:31;;;;;;;18.67;11.93;;;17.50;99.90;;;;;;5004633;28;20050;-65
2022/09/11 08:46:04;;;;;;;16.13;11.25;;;17.70;99.90;;;;;;4984907;28;20054;-65
2022/09/11 08:48:53;;;;;;;12.93;10.20;;;17.80;99.90;;;;;;4985974;28;20101;-65
2022/09/11 08:51:19;;;;;;;18.67;11.00;;;17.80;99.90;;;;;;4996596;28;20050;-65
2022/09/11 08:53:45;;;;;;;15.95;10.30;;;17.80;99.90;;;;;;4972028;28;20387;-71
2022/09/11 08:56:17;;;;;;;16.70;9.25;;;17.90;99.90;;;;;;4987224;28;20076;-67
2022/09/11 08:59:05;;;;;;;14.23;10.13;;;17.90;99.90;;;;;;4990125;28;20046;-67
2022/09/11 09:01:45;;;;;;;12.30;9.18;;;17.90;99.90;;;;;;4970993;28;20125;-68
2022/09/11 09:04:26;;;;;;;18.30;13.05;;;17.90;99.90;;;;;;4973758;28;20042;-68
2022/09/11 09:07:09;;;;;;;14.85;12.07;;;17.90;99.90;;;;;;5000113;28;20057;-68
2022/09/11 09:09:51;;;;;;;15.93;11.13;;;17.90;99.90;;;;;;4979093;28;20115;-68
2022/09/11 09:12:36;;;;;;;13.50;9.00;;;17.90;99.90;;;;;;5007743;28;20050;-68
2022/09/11 09:15:31;;;;;;;7.40;6.60;;;17.90;99.90;;;;;;4981364;28;20050;-68
2022/09/11 09:18:02;;;;;;;12.30;6.80;;;17.90;99.90;;;;;;4995844;28;20050;-68
2022/09/11 09:20:33;;;;;;;13.48;7.43;;;18.00;99.90;;;;;;5001236;28;20073;-67
2022/09/11 09:23:13;;;;;;;13.55;9.38;;;18.00;99.90;;;;;;4989403;28;20047;-67
2022/09/11 09:25:41;;;;;;;11.45;9.25;;;18.00;99.90;;;;;;4994756;28;20060;-66
2022/09/11 09:28:33;;;;;;;11.43;8.55;;;18.00;99.90;;;;;;4991165;28;20066;-67
2022/09/11 09:31:06;;;;;;;6.97;4.43;;;18.10;99.90;;;;;;4982024;28;20081;-71
2022/09/11 09:33:34;;;;;;;8.88;6.78;;;18.10;99.90;;;;;;4995208;28;20061;-71
2022/09/11 09:36:31;;;;;;;8.32;5.65;;;18.10;99.90;;;;;;5012484;28;20053;-71
2022/09/11 09:38:58;;;;;;;7.97;4.55;;;18.20;99.90;;;;;;5029690;28;20053;-71
2022/09/11 09:41:42;;;;;;;4.72;3.17;;;18.10;99.90;;;;;;5019173;28;20160;-71
2022/09/11 09:44:15;;;;;;;7.18;2.70;;;18.20;99.90;;;;;;4967476;28;20296;-71
2022/09/11 09:46:45;;;;;;;6.72;3.20;;;18.20;99.90;;;;;;5018787;28;20050;-71
2022/09/11 09:49:13;;;;;;;;;;;18.30;99.90;;;;;;4992385;28;20054;-71
2022/09/11 09:51:39;;;;;;;4.85;2.80;;;18.30;99.90;;;;;;5023128;28;19921;-71
2022/09/11 09:54:07;;;;;;;3.97;2.83;;;18.40;99.90;;;;;;4976921;28;20064;-71
2022/09/11 09:56:36;;;;;;;6.88;4.57;;;18.50;99.90;;;;;;4990058;28;20532;-71
2022/09/11 09:59:08;;;;;;;7.18;4.28;;;18.70;99.90;;;;;;4990512;28;20080;-71
2022/09/11 10:01:43;;;;;;;6.25;3.65;;;18.80;99.90;;;;;;4979752;28;20046;-71
2022/09/11 10:04:17;;;;;;;8.68;5.07;;;19.00;99.90;;;;;;5008848;28;20105;-74
2022/09/11 10:06:44;;;;;;;7.95;6.13;;;19.10;99.90;;;;;;5025957;28;20092;-71
2022/09/11 10:09:44;;;;;;;10.10;6.60;;;19.10;99.90;;;;;;4995610;28;20064;-71
2022/09/11 10:12:21;;;;;;;;;;;19.30;99.90;;;;;;4955135;28;20393;-71
2022/09/11 10:14:58;;;;;;;9.75;6.38;;;19.30;99.90;;;;;;5026310;28;19933;-71
2022/09/11 10:17:34;;;;;;;8.68;6.30;;;19.40;99.90;;;;;;5029227;28;20046;-71
2022/09/11 10:20:14;;;;;;;6.00;4.65;;;19.60;99.90;;;;;;4999451;28;20104;-70
2022/09/11 10:22:40;;;;;;;8.30;4.65;;;19.90;99.90;;;;;;5007064;28;20053;-71
2022/09/11 10:25:12;;;;;;;7.05;4.47;;;20.00;99.90;;;;;;5024325;28;20056;-71
2022/09/11 10:27:53;;;;;;;8.73;5.53;;;20.20;99.90;;;;;;5045649;28;20081;-71
2022/09/11 10:30:26;;;;;;;7.43;4.82;;;20.10;99.90;;;;;;5001088;28;20064;-71
2022/09/11 10:32:54;;;;;;;8.50;4.80;;;20.30;99.90;;;;;;5018934;28;20052;-71
2022/09/11 10:35:21;;;;;;;7.60;4.55;;;20.30;99.90;;;;;;4999775;28;20038;-71
2022/09/11 10:37:59;;;;;;;6.82;3.85;;;20.50;99.90;;;;;;5007833;28;20130;-71
2022/09/11 10:40:25;;;;;;;7.53;4.38;;;20.70;99.90;;;;;;5038829;28;20108;-71
2022/09/11 10:42:51;;;;;;;6.07;4.10;;;20.70;99.90;;;;;;4993172;28;20042;-71
2022/09/11 10:45:20;;;;;;;5.18;4.10;;;20.80;99.90;;;;;;5000428;28;20061;-71
2022/09/11 10:47:47;;;;;;;6.10;4.28;;;20.80;99.90;;;;;;5018863;28;20078;-71
2022/09/11 10:50:19;;;;;;;6.85;4.15;;;20.80;99.90;;;;;;4999363;28;20049;-71
2022/09/11 10:52:47;;;;;;;8.07;4.45;;;20.80;99.90;;;;;;4992630;28;20064;-71
2022/09/11 10:55:14;;;;;;;6.85;3.90;;;21.00;99.90;;;;;;5011947;28;20068;-71
2022/09/11 10:57:54;;;;;;;7.68;4.15;;;21.10;99.90;;;;;;4986991;28;20058;-71
2022/09/11 11:00:29;;;;;;;6.53;4.25;;;21.00;99.90;;;;;;4987623;28;20050;-71
2022/09/11 11:02:59;;;;;;;9.00;4.65;;;21.00;99.90;;;;;;5007008;28;20355;-71
2022/09/11 11:05:38;;;;;;;7.60;5.15;;;21.10;99.90;;;;;;5005348;28;20072;-71
2022/09/11 11:08:31;;;;;;;10.18;5.10;;;21.10;99.90;;;;;;4992534;28;20054;-71
2022/09/11 11:11:27;;;;;;;7.53;3.63;;;21.30;99.90;;;;;;5019566;28;20546;-71
2022/09/11 11:14:32;;;;;;;7.25;4.72;;;21.30;99.90;;;;;;5009011;28;20085;-71
2022/09/11 11:17:03;;;;;;;8.15;5.20;;;21.50;99.90;;;;;;4999661;28;20050;-71
2022/09/11 11:19:41;;;;;;;6.95;4.68;;;21.70;99.90;;;;;;4986886;28;20042;-71
2022/09/11 11:22:33;;;;;;;7.35;4.00;;;21.60;99.90;;;;;;5011323;28;20057;-71
2022/09/11 11:25:15;;;;;;;5.18;3.10;;;21.60;99.90;;;;;;5012509;28;20477;-71
2022/09/11 11:27:44;;;;;;;6.00;3.53;;;21.80;99.90;;;;;;5013499;28;20046;-71
2022/09/11 11:30:19;;;;;;;5.63;3.50;;;21.80;99.90;;;;;;5013699;28;20051;-71
2022/09/11 11:33:25;;;;;;;5.90;3.70;;;21.90;99.90;;;;;;4989220;28;20054;-71
2022/09/11 11:36:07;;;;;;;4.70;3.72;;;22.10;99.90;;;;;;5001416;28;20041;-71
2022/09/11 11:38:46;;;;;;;4.78;3.42;;;22.20;99.90;;;;;;4975523;28;20549;-71
2022/09/11 11:41:21;;;;;;;5.27;3.20;;;22.30;99.90;;;;;;4999522;28;20403;-71
2022/09/11 11:43:49;;;;;;;5.93;3.47;;;22.30;99.90;;;;;;5012567;28;20058;-71
2022/09/11 11:46:19;;;;;;;7.57;4.40;;;22.10;99.90;;;;;;4987383;28;20441;-71
2022/09/11 11:48:54;;;;;;;7.03;3.00;;;22.00;99.90;;;;;;4966132;28;20102;-71
2022/09/11 11:51:29;;;;;;;5.93;3.38;;;21.90;99.90;;;;;;4985845;28;20125;-71
2022/09/11 11:54:16;;;;;;;5.80;4.00;;;21.90;99.90;;;;;;4972656;28;20050;-71
2022/09/11 11:56:56;;;;;;;6.90;3.80;;;21.80;99.90;;;;;;5011290;28;20054;-71
2022/09/11 11:59:40;;;;;;;5.07;3.30;;;21.60;99.90;;;;;;4962661;28;20062;-71
2022/09/11 12:02:09;;;;;;;6.10;3.20;;;21.50;99.90;;;;;;4963440;28;20070;-71
2022/09/11 12:04:47;;;;;;;4.50;3.53;;;21.50;99.90;;;;;;4966418;28;20053;-71
2022/09/11 12:07:20;;;;;;;4.00;2.80;;;21.30;99.90;;;;;;4994951;28;20058;-71
2022/09/11 12:09:48;;;;;;;6.88;3.50;;;21.20;99.90;;;;;;4978734;28;20050;-71
2022/09/11 12:12:15;;;;;;;4.45;2.83;;;21.10;99.90;;;;;;5013888;28;20039;-71
2022/09/11 12:15:06;;;;;;;4.18;3.10;;;21.00;99.90;;;;;;4986843;28;20054;-71
2022/09/11 12:17:35;;;;;;;5.40;3.10;;;20.90;99.90;;;;;;4999094;28;20048;-71
2022/09/11 12:20:09;;;;;;;6.18;3.28;;;20.80;99.90;;;;;;5010874;28;20050;-71
2022/09/11 12:22:57;;;;;;;7.22;3.00;;;20.80;99.90;;;;;;4983230;28;20074;-71
2022/09/11 12:25:28;;;;;;;5.10;3.20;;;20.70;99.90;;;;;;4985189;28;20046;-70
2022/09/11 12:28:40;;;;;;;9.88;3.58;;;20.60;99.90;;;;;;5020325;28;20319;-71
2022/09/11 12:31:15;;;;;;;11.75;5.07;;;20.60;99.90;;;;;;4996954;28;20037;-72
2022/09/11 12:33:41;;;;;;;10.75;5.60;;;20.50;99.90;;;;;;4996509;28;20045;-69
2022/09/11 12:36:11;;;;;;;8.13;4.53;;;20.20;99.90;;;;;;5036518;28;20096;-70
2022/09/11 12:39:05;;;;;;;10.75;5.25;;;20.00;99.90;;;;;;5019311;28;20049;-69
2022/09/11 12:41:33;;;;;;;9.77;5.10;;;19.70;99.90;;;;;;5022132;28;20041;-70
2022/09/11 12:44:00;;;;;;;6.60;4.85;;;19.20;99.90;;;;;;5001664;28;20034;-69
2022/09/11 12:46:26;;;;;;;7.35;4.75;;;19.10;99.90;;;;;;5025291;28;20049;-70
2022/09/11 12:49:00;;;;;;;9.10;5.07;;;19.10;99.90;;;;;;5002908;28;20088;-69
2022/09/11 12:51:32;;;;;;;8.98;4.20;;;19.10;99.90;;;;;;5007952;28;20129;-70
2022/09/11 12:54:09;;;;;;;5.38;3.97;;;19.10;99.90;;;;;;4985563;28;20050;-70
2022/09/11 12:56:43;;;;;;;6.07;3.58;;;19.10;99.90;;;;;;5001674;28;20562;-69